createdAt,value
2023-08-07T00:02:29.219Z,16.63
2023-08-07T00:04:56.352Z,9.93
2023-08-07T00:07:31.702Z,15.25
2023-08-07T00:09:58.211Z,16.27
2023-08-07T00:12:24.911Z,16.60
2023-08-07T00:14:59.345Z,20.85
2023-08-07T00:17:29.064Z,9.90
2023-08-07T00:19:56.328Z,17.42
2023-08-07T00:22:28.509Z,14.82
2023-08-07T00:24:54.970Z,21.45
2023-08-07T00:27:24.014Z,21.60
2023-08-07T00:29:50.574Z,15.57
2023-08-07T00:32:17.243Z,14.75
2023-08-07T00:34:43.710Z,15.23
2023-08-07T00:37:10.223Z,12.07
2023-08-07T00:39:36.622Z,12.30
2023-08-07T00:42:03.216Z,11.32
2023-08-07T00:44:32.918Z,24.52
2023-08-07T00:47:04.252Z,20.70
2023-08-07T00:49:30.980Z,12.32
2023-08-07T00:52:00.473Z,17.77
2023-08-07T00:54:27.354Z,17.40
2023-08-07T00:56:54.243Z,19.65
2023-08-07T00:59:21.133Z,11.68
2023-08-07T01:01:47.709Z,9.57
2023-08-07T01:04:15.622Z,6.32
2023-08-07T01:06:42.270Z,6.72
2023-08-07T01:09:09.098Z,8.57
2023-08-07T01:12:01.092Z,7.30
2023-08-07T01:14:50.405Z,5.63
2023-08-07T01:17:20.493Z,10.82
2023-08-07T01:19:48.510Z,6.47
2023-08-07T01:22:17.625Z,12.32
2023-08-07T01:24:46.235Z,10.90
2023-08-07T01:27:19.034Z,11.35
2023-08-07T01:30:07.429Z,6.38
2023-08-07T01:33:04.533Z,10.88
2023-08-07T01:35:37.020Z,12.98
2023-08-07T01:38:04.769Z,17.10
2023-08-07T01:40:34.479Z,9.80
2023-08-07T01:43:01.557Z,12.23
2023-08-07T01:45:29.842Z,11.85
2023-08-07T01:47:57.160Z,11.73
2023-08-07T01:50:26.969Z,8.75
2023-08-07T01:52:53.951Z,11.63
2023-08-07T01:55:22.080Z,11.25
2023-08-07T01:57:48.710Z,10.27
2023-08-07T02:00:18.010Z,12.00
2023-08-07T02:02:45.752Z,9.32
2023-08-07T02:05:12.310Z,15.65
2023-08-07T02:07:38.846Z,9.55
2023-08-07T02:10:05.806Z,10.93
2023-08-07T02:12:32.456Z,13.68
2023-08-07T02:14:59.736Z,10.90
2023-08-07T02:17:28.987Z,17.95
2023-08-07T02:19:58.417Z,14.32
2023-08-07T02:22:28.322Z,9.35
2023-08-07T02:24:54.777Z,11.63
2023-08-07T02:27:21.296Z,9.90
2023-08-07T02:29:47.752Z,11.63
2023-08-07T02:32:14.131Z,14.55
2023-08-07T02:34:40.812Z,13.85
2023-08-07T02:37:07.336Z,6.15
2023-08-07T02:39:33.870Z,7.55
2023-08-07T02:42:00.567Z,11.20
2023-08-07T02:44:26.942Z,8.73
2023-08-07T02:46:53.474Z,9.90
2023-08-07T02:49:20.387Z,6.78
2023-08-07T02:51:47.007Z,4.53
2023-08-07T02:54:13.638Z,8.60
2023-08-07T02:56:40.281Z,5.28
2023-08-07T02:59:06.976Z,5.88
2023-08-07T03:01:36.463Z,10.27
2023-08-07T03:04:02.996Z,9.02
2023-08-07T03:06:29.553Z,6.43
2023-08-07T03:08:56.747Z,10.13
2023-08-07T03:11:23.331Z,13.32
2023-08-07T03:13:49.880Z,8.07
2023-08-07T03:16:16.795Z,8.20
2023-08-07T03:18:43.455Z,11.85
2023-08-07T03:21:09.935Z,11.18
2023-08-07T03:23:39.485Z,13.55
2023-08-07T03:26:18.301Z,16.33
2023-08-07T03:28:48.575Z,18.23
2023-08-07T03:31:16.030Z,12.50
2023-08-07T03:33:42.706Z,14.60
2023-08-07T03:36:09.355Z,14.50
2023-08-07T03:38:38.697Z,12.45
2023-08-07T03:41:05.288Z,20.23
2023-08-07T03:43:31.829Z,20.50
2023-08-07T03:46:01.478Z,21.98
2023-08-07T03:48:29.428Z,26.25
2023-08-07T03:51:06.211Z,21.30
2023-08-07T03:53:32.834Z,21.10
2023-08-07T03:55:59.322Z,22.55
2023-08-07T03:58:28.550Z,25.48
2023-08-07T04:00:58.236Z,14.00
2023-08-07T04:03:27.307Z,17.70
2023-08-07T04:05:55.305Z,12.07
2023-08-07T04:08:23.912Z,16.38
2023-08-07T04:11:03.998Z,13.32
2023-08-07T04:13:31.092Z,12.50
2023-08-07T04:15:58.622Z,11.48
2023-08-07T04:18:28.371Z,10.32
2023-08-07T04:20:58.399Z,8.00
2023-08-07T04:23:28.209Z,8.02
2023-08-07T04:25:58.111Z,7.80
2023-08-07T04:28:26.886Z,9.70
2023-08-07T04:30:53.685Z,14.13
2023-08-07T04:33:27.456Z,11.30
2023-08-07T04:36:14.374Z,17.95
2023-08-07T04:38:46.844Z,17.23
2023-08-07T04:41:13.482Z,22.55
2023-08-07T04:43:39.944Z,23.58
2023-08-07T04:46:06.348Z,17.77
2023-08-07T04:48:35.474Z,16.80
2023-08-07T04:51:02.980Z,23.60
2023-08-07T04:53:29.512Z,18.55
2023-08-07T04:55:59.220Z,17.35
2023-08-07T04:58:31.916Z,13.55
2023-08-07T05:00:59.565Z,20.73
2023-08-07T05:03:31.525Z,13.52
2023-08-07T05:06:04.039Z,18.98
2023-08-07T05:08:30.641Z,17.67
2023-08-07T05:10:57.106Z,24.58
2023-08-07T05:13:29.108Z,19.55
2023-08-07T05:15:55.638Z,11.05
2023-08-07T05:18:29.602Z,16.58
2023-08-07T05:21:01.512Z,13.05
2023-08-07T05:23:42.444Z,17.65
2023-08-07T05:26:11.965Z,18.85
2023-08-07T05:28:54.461Z,10.45
2023-08-07T05:31:32.153Z,22.00
2023-08-07T05:34:09.583Z,13.80
2023-08-07T05:36:43.233Z,16.40
2023-08-07T05:39:12.154Z,17.98
2023-08-07T05:41:38.696Z,20.65
2023-08-07T05:44:08.321Z,18.90
2023-08-07T05:46:34.907Z,10.95
2023-08-07T05:49:01.921Z,10.45
2023-08-07T05:51:28.653Z,12.73
2023-08-07T05:53:58.218Z,16.38
2023-08-07T05:56:27.682Z,10.90
2023-08-07T05:58:56.330Z,18.42
2023-08-07T06:01:28.392Z,18.38
2023-08-07T06:04:11.470Z,19.33
2023-08-07T06:06:38.262Z,15.90
2023-08-07T06:09:05.061Z,15.70
2023-08-07T06:11:32.440Z,19.85
2023-08-07T06:14:01.702Z,17.83
2023-08-07T06:16:28.683Z,20.42
2023-08-07T06:18:58.410Z,25.63
2023-08-07T06:21:28.528Z,15.65
2023-08-07T06:23:58.230Z,21.27
2023-08-07T06:27:05.017Z,17.98
2023-08-07T06:29:33.169Z,12.52
2023-08-07T06:34:56.586Z,19.70
2023-08-07T06:38:36.624Z,26.88
2023-08-07T06:40:43.347Z,11.73
2023-08-07T06:43:12.072Z,24.25
2023-08-07T06:46:03.303Z,21.52
2023-08-07T06:48:37.814Z,16.85
2023-08-07T06:51:08.454Z,14.82
2023-08-07T06:53:34.893Z,17.08
2023-08-07T06:56:11.797Z,12.55
2023-08-07T06:59:32.207Z,14.88
2023-08-07T07:02:05.170Z,11.18
2023-08-07T07:04:41.644Z,10.85
2023-08-07T07:07:13.981Z,13.80
2023-08-07T07:09:56.938Z,13.90
2023-08-07T07:12:26.204Z,12.48
2023-08-07T07:15:03.684Z,8.90
2023-08-07T07:17:32.193Z,16.27
2023-08-07T07:20:05.242Z,12.63
2023-08-07T07:26:17.273Z,10.47
2023-08-07T07:29:08.510Z,10.68
2023-08-07T07:32:40.876Z,12.95
2023-08-07T07:35:13.599Z,5.47
2023-08-07T07:40:30.267Z,10.05
2023-08-07T07:43:37.301Z,11.43
2023-08-07T07:47:00.351Z,9.52
2023-08-07T07:49:09.536Z,17.48
2023-08-07T07:51:41.783Z,17.65
2023-08-07T07:54:14.964Z,12.10
2023-08-07T07:56:49.115Z,13.70
2023-08-07T07:59:15.645Z,18.40
2023-08-07T08:02:21.268Z,12.77
2023-08-07T08:04:48.026Z,13.10
2023-08-07T08:07:17.494Z,9.77
2023-08-07T08:10:02.564Z,10.68
2023-08-07T08:12:45.775Z,12.02
2023-08-07T08:15:20.205Z,12.85
2023-08-07T08:18:10.123Z,13.10
2023-08-07T08:20:40.224Z,9.73
2023-08-07T08:23:21.969Z,14.48
2023-08-07T08:29:20.058Z,17.45
2023-08-07T08:31:54.642Z,15.80
2023-08-07T08:35:19.202Z,11.70
2023-08-07T08:37:44.477Z,10.48
2023-08-07T08:40:25.298Z,15.45
2023-08-07T08:42:52.140Z,7.57
2023-08-07T08:46:16.258Z,12.07
2023-08-07T08:48:47.955Z,7.45
2023-08-07T08:51:22.431Z,10.13
2023-08-07T08:53:49.211Z,7.32
2023-08-07T08:56:20.269Z,11.05
2023-08-07T08:58:47.447Z,10.57
2023-08-07T09:01:14.284Z,11.07
2023-08-07T09:03:41.236Z,11.45
2023-08-07T09:06:08.374Z,16.58
2023-08-07T09:09:00.497Z,8.10
2023-08-07T09:11:28.993Z,9.48
2023-08-07T09:13:59.767Z,12.43
2023-08-07T09:16:31.151Z,7.15
2023-08-07T09:21:47.078Z,14.43
2023-08-07T09:24:38.773Z,17.52
2023-08-07T09:34:15.626Z,6.78
2023-08-07T09:36:42.576Z,12.10
2023-08-07T09:39:12.586Z,11.13
2023-08-07T09:41:57.842Z,16.55
2023-08-07T09:48:39.763Z,7.72
2023-08-07T09:57:48.612Z,8.70
2023-08-07T10:00:36.524Z,5.88
2023-08-07T10:10:17.995Z,11.30
2023-08-07T10:12:47.043Z,5.85
2023-08-07T10:15:14.548Z,8.90
2023-08-07T10:18:15.266Z,10.05
2023-08-07T10:20:45.660Z,11.75
2023-08-07T10:23:18.477Z,14.60
2023-08-07T10:26:12.556Z,9.80
2023-08-07T10:28:57.309Z,12.48
2023-08-07T10:31:36.376Z,10.48
2023-08-07T10:56:01.943Z,11.23
2023-08-07T11:03:17.028Z,5.25
2023-08-07T11:09:57.115Z,9.50
2023-08-07T11:22:22.396Z,9.75
2023-08-07T11:25:00.782Z,5.20
2023-08-07T11:27:46.460Z,12.65
2023-08-07T11:36:56.646Z,12.90
2023-08-07T11:57:46.870Z,5.32
2023-08-07T12:14:46.832Z,3.97
2023-08-07T12:48:11.919Z,5.18
2023-08-07T13:33:05.808Z,9.82
2023-08-07T13:35:34.629Z,6.75
2023-08-07T13:38:04.388Z,6.40
2023-08-07T13:40:36.648Z,5.85
2023-08-07T13:43:28.562Z,11.18
2023-08-07T13:45:59.770Z,7.60
2023-08-07T13:48:31.817Z,8.80
2023-08-07T13:51:03.287Z,7.60
2023-08-07T13:56:07.516Z,11.05
2023-08-07T13:58:34.299Z,6.35
2023-08-07T14:01:23.807Z,6.32
2023-08-07T14:03:53.538Z,10.20
2023-08-07T14:06:51.546Z,7.00
2023-08-07T14:09:19.511Z,5.25
2023-08-07T14:14:37.404Z,12.75
2023-08-07T14:17:07.511Z,9.82
2023-08-07T14:19:45.449Z,5.30
2023-08-07T14:22:44.069Z,6.95
2023-08-07T14:25:13.592Z,6.40
2023-08-07T14:27:43.737Z,4.63
2023-08-07T14:30:14.053Z,9.15
2023-08-07T14:33:13.609Z,9.05
2023-08-07T14:35:49.743Z,3.78
2023-08-07T14:38:27.987Z,5.85
2023-08-07T14:41:34.363Z,6.90
2023-08-07T14:44:11.084Z,5.18
2023-08-07T14:46:43.461Z,6.93
2023-08-07T14:49:13.033Z,8.20
2023-08-07T14:51:44.560Z,5.20
2023-08-07T14:56:46.748Z,5.82
2023-08-07T14:59:18.087Z,4.65
2023-08-07T15:01:44.834Z,4.63
2023-08-07T15:04:12.954Z,2.80
2023-08-07T15:06:54.428Z,5.45
2023-08-07T15:09:54.256Z,4.40
2023-08-07T15:12:20.845Z,3.60
2023-08-07T15:14:51.928Z,7.65
2023-08-07T15:17:24.250Z,9.48
2023-08-07T15:19:52.449Z,7.32
2023-08-07T15:22:21.422Z,4.68
2023-08-07T15:24:53.976Z,8.57
2023-08-07T15:27:27.488Z,7.10
2023-08-07T15:30:05.540Z,8.13
2023-08-07T15:32:38.310Z,6.50
2023-08-07T15:35:11.060Z,6.03
2023-08-07T15:37:42.665Z,5.07
2023-08-07T15:42:36.208Z,8.00
2023-08-07T15:45:13.729Z,6.13
2023-08-07T15:47:43.513Z,8.35
2023-08-07T15:50:16.201Z,8.00
2023-08-07T15:52:43.434Z,7.63
2023-08-07T15:55:17.574Z,7.20
2023-08-07T15:57:44.046Z,4.03
2023-08-07T16:00:12.881Z,6.65
2023-08-07T16:02:44.352Z,3.88
2023-08-07T16:05:11.528Z,6.60
2023-08-07T16:07:40.417Z,3.75
2023-08-07T16:10:07.722Z,7.95
2023-08-07T16:12:34.240Z,4.75
2023-08-07T16:15:00.935Z,4.93
2023-08-07T16:17:27.601Z,5.30
2023-08-07T16:19:54.189Z,6.78
2023-08-07T16:22:20.652Z,8.10
2023-08-07T16:24:47.388Z,9.02
2023-08-07T16:27:14.199Z,5.22
2023-08-07T16:29:40.829Z,5.38
2023-08-07T16:32:07.496Z,7.30
2023-08-07T16:34:37.314Z,4.80
2023-08-07T16:37:04.293Z,6.07
2023-08-07T16:39:31.037Z,4.88
2023-08-07T16:41:57.643Z,4.88
2023-08-07T16:44:24.170Z,11.52
2023-08-07T16:46:50.674Z,7.95
2023-08-07T16:49:17.345Z,5.93
2023-08-07T16:51:47.262Z,5.55
2023-08-07T16:54:13.799Z,10.63
2023-08-07T16:56:40.483Z,10.50
2023-08-07T16:59:07.124Z,4.75
2023-08-07T17:01:33.790Z,11.38
2023-08-07T17:04:00.486Z,7.60
2023-08-07T17:06:29.518Z,6.60
2023-08-07T17:08:56.120Z,3.83
2023-08-07T17:11:22.647Z,7.75
2023-08-07T17:13:49.207Z,5.63
2023-08-07T17:16:15.726Z,6.55
2023-08-07T17:18:56.046Z,7.68
2023-08-07T17:21:28.196Z,5.25
2023-08-07T17:23:54.767Z,5.32
2023-08-07T17:26:21.524Z,4.15
2023-08-07T17:28:48.120Z,9.23
2023-08-07T17:31:14.893Z,2.60
2023-08-07T17:33:44.385Z,4.30
2023-08-07T17:36:10.950Z,4.07
2023-08-07T17:38:37.770Z,5.20
2023-08-07T17:41:07.282Z,5.18
2023-08-07T17:43:33.934Z,6.78
2023-08-07T17:46:00.641Z,5.88
2023-08-07T17:48:27.388Z,5.68
2023-08-07T17:50:53.917Z,5.30
2023-08-07T17:53:21.767Z,6.03
2023-08-07T17:55:48.316Z,5.15
2023-08-07T17:58:14.982Z,5.78
2023-08-07T18:00:44.120Z,5.38
2023-08-07T18:03:11.599Z,7.25
2023-08-07T18:05:38.873Z,11.30
2023-08-07T18:11:08.991Z,8.63
2023-08-07T18:13:46.922Z,3.88
2023-08-07T18:17:06.733Z,10.00
2023-08-07T18:19:57.551Z,5.20
2023-08-07T18:22:37.372Z,8.45
2023-08-07T18:25:15.612Z,9.18
2023-08-07T18:27:55.593Z,9.65
2023-08-07T18:30:31.727Z,4.68
2023-08-07T18:33:26.219Z,13.25
2023-08-07T18:36:09.738Z,5.60
2023-08-07T18:38:43.482Z,3.83
2023-08-07T18:41:13.185Z,4.72
2023-08-07T18:43:46.552Z,6.65
2023-08-07T18:49:17.107Z,6.50
2023-08-07T18:54:27.936Z,8.13
2023-08-07T18:57:03.175Z,6.70
2023-08-07T18:59:30.989Z,6.13
2023-08-07T19:01:57.586Z,4.75
2023-08-07T19:04:26.773Z,7.00
2023-08-07T19:06:58.684Z,5.57
2023-08-07T19:09:33.002Z,5.20
2023-08-07T19:12:01.475Z,4.55
2023-08-07T19:14:28.061Z,7.78
2023-08-07T19:16:54.694Z,9.48
2023-08-07T19:19:21.572Z,6.50
2023-08-07T19:21:48.156Z,5.80
2023-08-07T19:24:14.665Z,7.00
2023-08-07T19:26:41.397Z,6.55
2023-08-07T19:29:08.029Z,4.53
2023-08-07T19:31:34.629Z,5.88
2023-08-07T19:34:01.329Z,8.27
2023-08-07T19:36:30.649Z,4.93
2023-08-07T19:38:57.332Z,8.25
2023-08-07T19:41:23.874Z,5.95
2023-08-07T19:43:50.429Z,7.68
2023-08-07T19:46:17.004Z,8.98
2023-08-07T19:48:43.565Z,6.18
2023-08-07T19:51:10.326Z,6.25
2023-08-07T19:53:38.605Z,6.03
2023-08-07T19:56:07.174Z,6.22
2023-08-07T19:58:34.100Z,7.00
2023-08-07T20:01:00.677Z,8.05
2023-08-07T20:03:27.352Z,4.97
2023-08-07T20:05:54.159Z,6.88
2023-08-07T20:08:20.776Z,7.97
2023-08-07T20:10:47.387Z,5.22
2023-08-07T20:13:16.285Z,9.02
2023-08-07T20:15:45.870Z,5.03
2023-08-07T20:18:12.451Z,5.32
2023-08-07T20:20:38.930Z,7.15
2023-08-07T20:23:08.420Z,4.30
2023-08-07T20:25:34.883Z,6.20
2023-08-07T20:28:01.477Z,10.70
2023-08-07T20:30:31.298Z,6.70
2023-08-07T20:32:59.198Z,8.77
2023-08-07T20:35:27.060Z,12.00
2023-08-07T20:37:53.787Z,6.88
2023-08-07T20:40:20.301Z,4.68
2023-08-07T20:42:46.901Z,6.47
2023-08-07T20:45:13.859Z,5.95
2023-08-07T20:47:41.778Z,3.13
2023-08-07T20:50:08.809Z,6.53
2023-08-07T20:52:36.588Z,4.75
2023-08-07T20:55:03.215Z,6.75
2023-08-07T20:57:32.868Z,5.22
2023-08-07T20:59:59.454Z,4.85
2023-08-07T21:02:26.133Z,6.75
2023-08-07T21:04:52.786Z,6.63
2023-08-07T21:07:19.443Z,14.02
2023-08-07T21:09:46.028Z,5.43
2023-08-07T21:12:12.555Z,5.70
2023-08-07T21:14:39.289Z,8.25
2023-08-07T21:17:06.160Z,4.93
2023-08-07T21:19:32.700Z,6.05
2023-08-07T21:21:59.949Z,8.38
2023-08-07T21:24:26.546Z,7.38
2023-08-07T21:26:53.229Z,8.45
2023-08-07T21:29:19.829Z,6.25
2023-08-07T21:31:46.580Z,7.50
2023-08-07T21:34:13.153Z,6.22
2023-08-07T21:36:39.680Z,7.13
2023-08-07T21:39:09.120Z,11.38
2023-08-07T21:41:36.717Z,5.43
2023-08-07T21:44:03.284Z,7.28
2023-08-07T21:46:29.690Z,12.10
2023-08-07T21:48:56.376Z,9.18
2023-08-07T21:51:23.021Z,6.78
2023-08-07T21:53:49.511Z,12.68
2023-08-07T21:56:16.150Z,11.07
2023-08-07T21:58:42.703Z,6.28
2023-08-07T22:01:11.845Z,11.38
2023-08-07T22:03:47.418Z,6.32
2023-08-07T22:06:14.560Z,7.80
2023-08-07T22:08:41.104Z,8.52
2023-08-07T22:11:07.656Z,8.98
2023-08-07T22:13:34.205Z,7.63
2023-08-07T22:16:00.982Z,8.68
2023-08-07T22:18:27.561Z,5.05
2023-08-07T22:20:54.283Z,4.50
2023-08-07T22:23:20.852Z,7.38
2023-08-07T22:25:48.292Z,5.63
2023-08-07T22:28:14.883Z,6.53
2023-08-07T22:30:43.975Z,5.32
2023-08-07T22:33:10.617Z,7.82
2023-08-07T22:35:37.216Z,7.03
2023-08-07T22:38:03.806Z,7.32
2023-08-07T22:40:30.464Z,3.83
2023-08-07T22:42:57.093Z,7.60
2023-08-07T22:45:23.595Z,4.97
2023-08-07T22:47:50.314Z,5.95
2023-08-07T22:50:19.086Z,11.30
2023-08-07T22:52:45.911Z,5.85
2023-08-07T22:55:14.192Z,7.13
2023-08-07T22:57:40.828Z,6.03
2023-08-07T23:00:08.103Z,10.55
2023-08-07T23:02:34.677Z,5.80
2023-08-07T23:05:01.632Z,4.03
2023-08-07T23:07:28.164Z,7.93
2023-08-07T23:09:54.990Z,9.43
2023-08-07T23:12:21.507Z,4.70
2023-08-07T23:14:48.055Z,8.02
2023-08-07T23:17:14.470Z,7.55
2023-08-07T23:19:41.016Z,6.03
2023-08-07T23:22:07.514Z,6.85
2023-08-07T23:24:33.959Z,8.00
2023-08-07T23:27:00.769Z,7.80
2023-08-07T23:29:27.415Z,5.72
2023-08-07T23:31:54.113Z,5.32
2023-08-07T23:34:20.862Z,11.70
2023-08-07T23:36:47.599Z,10.57
2023-08-07T23:39:14.170Z,7.85
2023-08-07T23:41:41.996Z,6.00
2023-08-07T23:44:08.570Z,9.05
2023-08-07T23:46:35.477Z,8.55
2023-08-07T23:49:07.142Z,13.05
2023-08-07T23:51:39.213Z,6.90
2023-08-07T23:54:05.836Z,6.13
2023-08-07T23:56:32.560Z,6.15
2023-08-07T23:58:59.254Z,6.05
